Time;durP1;ratioP1;P1;durP2;ratioP2;P2;SDS_P1;SDS_P2;PMS_P1;PMS_P2;Temp;Humidity;BMP_temperature;BMP_pressure;BME280_temperature;BME280_humidity;BME280_pressure;Samples;Min_cycle;Max_cycle;Signal;HPM_P1;HPM_P2
2021/05/04 00:02:19;;;;;;;16.52;12.70;;;20.10;87.70;;;;;;4977186;28;20019;-69
2021/05/04 00:04:46;;;;;;;15.40;12.45;;;20.10;87.80;;;;;;4977652;28;20033;-69
2021/05/04 00:07:14;;;;;;;16.08;13.45;;;20.10;87.80;;;;;;4977640;28;20027;-70
2021/05/04 00:09:41;;;;;;;15.57;13.00;;;20.10;87.80;;;;;;4977921;28;20098;-69
2021/05/04 00:12:09;;;;;;;16.65;13.13;;;20.10;87.90;;;;;;4977388;28;20385;-67
2021/05/04 00:14:36;;;;;;;19.52;12.98;;;20.10;87.90;;;;;;4977104;28;20035;-68
2021/05/04 00:17:04;;;;;;;16.67;13.60;;;20.10;87.90;;;;;;4976901;28;20094;-69
2021/05/04 00:19:32;;;;;;;18.67;13.07;;;20.00;87.80;;;;;;4959486;28;20031;-68
2021/05/04 00:22:00;;;;;;;15.93;14.05;;;20.00;87.90;;;;;;4977192;28;20058;-68
2021/05/04 00:24:28;;;;;;;16.08;13.48;;;20.00;87.90;;;;;;4978875;28;20110;-67
2021/05/04 00:26:55;;;;;;;19.70;13.85;;;20.00;87.90;;;;;;4977064;28;20035;-68
2021/05/04 00:29:22;;;;;;;19.50;14.25;;;20.00;88.00;;;;;;4976584;28;20117;-68
2021/05/04 00:31:51;;;;;;;18.50;13.57;;;20.00;88.60;;;;;;4976788;28;20084;-69
2021/05/04 00:34:18;;;;;;;20.65;14.65;;;20.00;88.00;;;;;;4976585;28;20487;-69
2021/05/04 00:36:45;;;;;;;18.55;14.07;;;20.00;88.00;;;;;;4976455;28;20037;-71
2021/05/04 00:39:17;;;;;;;19.88;13.90;;;20.00;88.10;;;;;;4976726;28;20031;-70
2021/05/04 00:41:46;;;;;;;17.60;14.07;;;20.00;88.10;;;;;;4976272;28;20033;-69
2021/05/04 00:44:13;;;;;;;20.98;14.38;;;19.90;88.00;;;;;;4959537;28;20113;-70
2021/05/04 00:46:41;;;;;;;19.38;15.57;;;19.90;88.10;;;;;;4958359;28;20481;-68
2021/05/04 00:49:09;;;;;;;16.63;13.23;;;19.90;88.10;;;;;;4975705;28;20039;-67
2021/05/04 00:51:38;;;;;;;19.20;13.52;;;19.90;88.20;;;;;;4975553;28;20437;-69
2021/05/04 00:54:05;;;;;;;16.63;14.32;;;19.90;88.20;;;;;;4975833;28;20112;-67
2021/05/04 00:56:35;;;;;;;19.55;15.27;;;19.90;88.40;;;;;;4975577;28;20102;-69
2021/05/04 00:59:04;;;;;;;21.38;14.10;;;19.90;88.30;;;;;;4975766;28;20026;-68
2021/05/04 01:01:31;;;;;;;16.10;14.40;;;19.90;88.50;;;;;;4975707;28;20035;-70
2021/05/04 01:03:59;;;;;;;17.10;14.23;;;19.90;88.40;;;;;;4975913;28;20380;-68
2021/05/04 01:06:26;;;;;;;21.13;15.20;;;19.80;88.50;;;;;;4975508;28;20446;-68
2021/05/04 01:08:54;;;;;;;16.30;14.60;;;19.80;88.50;;;;;;4975280;28;20043;-69
2021/05/04 01:11:21;;;;;;;19.00;14.65;;;19.80;88.60;;;;;;4975871;28;20026;-69
2021/05/04 01:13:52;;;;;;;18.85;14.63;;;19.90;88.60;;;;;;4974976;28;20023;-69
2021/05/04 01:16:19;;;;;;;19.55;15.18;;;19.80;88.60;;;;;;4975444;28;20118;-68
2021/05/04 01:18:47;;;;;;;17.85;15.13;;;19.80;88.60;;;;;;4975732;28;20026;-68
2021/05/04 01:21:15;;;;;;;19.02;15.35;;;19.80;88.70;;;;;;4975572;28;20420;-69
2021/05/04 01:23:42;;;;;;;18.35;15.73;;;19.80;88.70;;;;;;4973754;28;20073;-67
2021/05/04 01:26:09;;;;;;;18.08;15.20;;;19.80;88.70;;;;;;4975224;28;20114;-71
2021/05/04 01:28:37;;;;;;;19.55;16.65;;;19.80;88.80;;;;;;4975345;28;20026;-69
2021/05/04 01:31:04;;;;;;;20.40;15.82;;;19.80;88.90;;;;;;4975683;28;20051;-69
2021/05/04 01:33:31;;;;;;;18.77;15.35;;;19.80;88.80;;;;;;4975843;28;20019;-70
2021/05/04 01:36:00;;;;;;;19.08;15.00;;;19.80;88.90;;;;;;4975300;28;20031;-69
2021/05/04 01:38:28;;;;;;;20.63;15.43;;;19.80;89.00;;;;;;4973624;28;20027;-69
2021/05/04 01:40:55;;;;;;;17.70;14.35;;;19.80;89.00;;;;;;4975661;28;20131;-68
2021/05/04 01:43:23;;;;;;;21.45;15.80;;;19.80;89.00;;;;;;4975987;28;20051;-69
2021/05/04 10:01:36;;;;;;;12.68;9.75;;;19.20;90.50;;;;;;4973371;23;21455;-52
2021/05/04 10:04:05;;;;;;;10.40;8.73;;;19.20;90.80;;;;;;4942168;28;20421;-45
2021/05/04 10:06:33;;;;;;;10.45;8.48;;;19.20;90.50;;;;;;4957089;28;20122;-53
2021/05/04 10:09:01;;;;;;;11.70;9.25;;;19.30;90.40;;;;;;4950109;28;20037;-47
2021/05/04 10:11:30;;;;;;;10.32;8.57;;;19.20;90.40;;;;;;4963182;28;20042;-50
2021/05/04 10:14:01;;;;;;;11.05;8.77;;;19.30;90.40;;;;;;4951469;28;20485;-53
2021/05/04 10:16:31;;;;;;;13.30;9.05;;;19.30;90.40;;;;;;4954158;28;20047;-51
2021/05/04 10:19:00;;;;;;;11.48;8.35;;;19.30;90.30;;;;;;4953598;28;20019;-48
2021/05/04 10:21:29;;;;;;;11.05;7.75;;;19.30;90.40;;;;;;4960068;28;20488;-52
2021/05/04 10:23:57;;;;;;;13.48;9.20;;;19.30;91.00;;;;;;4959021;28;20027;-46
2021/05/04 10:26:30;;;;;;;18.25;10.82;;;19.30;91.50;;;;;;4956059;28;20054;-48
2021/05/04 10:29:07;;;;;;;18.20;10.82;;;19.30;91.30;;;;;;4950029;28;20034;-47
2021/05/04 10:31:38;;;;;;;16.52;9.93;;;19.30;91.30;;;;;;4939924;28;20051;-53
2021/05/04 10:34:37;;;;;;;24.20;11.90;;;19.30;91.30;;;;;;4961240;28;20252;-49
2021/05/04 10:37:27;;;;;;;16.75;11.60;;;19.30;91.20;;;;;;4960164;28;20440;-47
2021/05/04 10:39:54;;;;;;;23.13;12.15;;;19.40;91.10;;;;;;4955201;28;20484;-50
2021/05/04 10:42:41;;;;;;;20.85;11.40;;;19.40;91.20;;;;;;4958336;28;20050;-48
2021/05/04 10:45:12;;;;;;;20.38;10.57;;;19.40;90.90;;;;;;4957592;28;20146;-51
2021/05/04 10:47:42;;;;;;;20.70;11.32;;;19.40;91.10;;;;;;4953884;28;20031;-52
2021/05/04 10:50:16;;;;;;;20.05;11.10;;;19.40;90.90;;;;;;4953228;28;20042;-53
2021/05/04 10:52:57;;;;;;;17.17;10.88;;;19.40;90.90;;;;;;4960431;28;20039;-47
2021/05/04 10:55:45;;;;;;;25.05;11.18;;;19.50;90.80;;;;;;4957251;28;20516;-56
2021/05/04 10:58:17;;;;;;;22.70;11.20;;;19.50;90.90;;;;;;4946077;28;20279;-53
2021/05/04 11:00:51;;;;;;;23.38;11.85;;;19.50;90.90;;;;;;4957837;28;20035;-50
2021/05/04 11:03:48;;;;;;;27.85;12.60;;;19.50;90.80;;;;;;4957342;28;20046;-49
2021/05/04 11:06:24;;;;;;;24.50;11.15;;;19.50;90.90;;;;;;4958795;28;20341;-51
2021/05/04 11:08:52;;;;;;;30.95;12.40;;;19.50;90.80;;;;;;4954705;28;20051;-49
2021/05/04 11:11:37;;;;;;;23.77;11.98;;;19.50;90.80;;;;;;4952564;29;20037;-49
2021/05/04 11:14:05;;;;;;;25.83;12.48;;;19.50;90.70;;;;;;4952470;29;20047;-49
2021/05/04 11:16:40;;;;;;;22.55;11.63;;;19.50;90.80;;;;;;4957159;28;20031;-53
2021/05/04 11:19:18;;;;;;;21.27;11.50;;;19.50;90.80;;;;;;4956787;28;20034;-54
2021/05/04 11:21:48;;;;;;;22.77;11.57;;;19.50;90.70;;;;;;4957351;28;20027;-55
2021/05/04 11:24:19;;;;;;;25.80;12.65;;;19.50;90.70;;;;;;4956538;28;20067;-52
2021/05/04 11:27:02;;;;;;;26.50;12.25;;;19.50;90.70;;;;;;4952196;29;20472;-48
2021/05/04 11:29:33;;;;;;;23.30;12.48;;;19.50;90.70;;;;;;4953145;28;20031;-48
2021/05/04 11:32:19;;;;;;;29.05;11.95;;;19.50;90.60;;;;;;4945619;28;20477;-48
2021/05/04 11:34:53;;;;;;;28.33;11.90;;;19.50;90.60;;;;;;4962225;28;20177;-50
2021/05/04 11:37:21;;;;;;;21.95;11.63;;;19.50;90.60;;;;;;4963661;28;20039;-53
2021/05/04 11:39:57;;;;;;;27.40;11.95;;;19.50;90.60;;;;;;4956830;28;20030;-52
2021/05/04 11:42:27;;;;;;;22.23;12.30;;;19.50;90.60;;;;;;4964442;28;21228;-54
2021/05/04 11:45:05;;;;;;;24.83;11.95;;;19.50;90.60;;;;;;4939495;28;20476;-50
2021/05/04 11:47:33;;;;;;;24.13;11.93;;;19.50;90.60;;;;;;4962590;28;20385;-52
2021/05/04 11:50:05;;;;;;;22.38;12.35;;;19.50;90.60;;;;;;4952283;28;20042;-55
2021/05/04 11:52:32;;;;;;;25.17;12.82;;;19.50;90.60;;;;;;4958666;28;20035;-51
2021/05/04 11:55:15;;;;;;;23.05;12.05;;;19.50;90.60;;;;;;4949945;28;20027;-48
2021/05/04 11:57:45;;;;;;;23.75;11.95;;;19.50;90.60;;;;;;4956778;28;20050;-49
2021/05/04 12:00:17;;;;;;;24.52;11.88;;;19.50;90.60;;;;;;4956472;28;20027;-48
2021/05/04 12:02:46;;;;;;;23.02;11.63;;;19.50;90.60;;;;;;4953136;28;20056;-47
2021/05/04 12:05:16;;;;;;;21.88;11.82;;;19.50;90.50;;;;;;4959592;28;20030;-54
2021/05/04 12:07:48;;;;;;;21.80;12.15;;;19.50;90.50;;;;;;4955734;28;20035;-53
2021/05/04 12:10:15;;;;;;;21.05;10.98;;;19.50;90.60;;;;;;4951637;28;20397;-49
2021/05/04 12:12:46;;;;;;;20.83;11.20;;;19.50;90.60;;;;;;4956385;28;20039;-49
2021/05/04 12:15:17;;;;;;;24.23;11.37;;;19.40;90.60;;;;;;4957595;28;20032;-52
2021/05/04 12:17:56;;;;;;;22.95;11.80;;;19.50;90.50;;;;;;4952730;28;20783;-56
2021/05/04 12:20:24;;;;;;;24.38;10.88;;;19.50;90.50;;;;;;4954335;28;20027;-50
2021/05/04 12:22:55;;;;;;;24.15;11.20;;;19.50;90.50;;;;;;4968371;28;20027;-53
2021/05/04 12:25:28;;;;;;;22.40;11.70;;;19.50;90.50;;;;;;4963547;28;20065;-57
2021/05/04 12:27:56;;;;;;;21.20;10.63;;;19.50;90.50;;;;;;4961571;28;20050;-51
2021/05/04 12:30:26;;;;;;;28.08;12.35;;;19.50;90.50;;;;;;4956687;28;20100;-49
2021/05/04 12:32:54;;;;;;;20.52;10.65;;;19.50;90.50;;;;;;4963980;28;20798;-54
2021/05/04 12:35:32;;;;;;;21.73;11.77;;;19.50;90.40;;;;;;4954477;28;20031;-53
2021/05/04 12:38:14;;;;;;;19.63;10.75;;;19.50;90.40;;;;;;4953097;29;20497;-55
2021/05/04 12:40:51;;;;;;;21.50;11.48;;;19.50;90.40;;;;;;4959280;28;20388;-52
2021/05/04 12:43:26;;;;;;;20.20;11.07;;;19.50;90.40;;;;;;4959544;28;20027;-53
2021/05/04 12:46:31;;;;;;;16.65;10.48;;;19.50;90.40;;;;;;4962264;28;20110;-52
2021/05/04 12:49:00;;;;;;;21.02;11.60;;;19.40;90.40;;;;;;4953116;28;20591;-51
2021/05/04 12:51:33;;;;;;;20.80;11.02;;;19.30;90.60;;;;;;4946751;29;20047;-55
2021/05/04 12:54:15;;;;;;;17.80;9.88;;;19.30;90.60;;;;;;4956646;29;20102;-57
2021/05/04 12:56:43;;;;;;;19.47;11.10;;;19.30;90.50;;;;;;4963867;28;20097;-58
2021/05/04 12:59:36;;;;;;;20.42;10.18;;;19.30;90.60;;;;;;4963274;28;20027;-57
2021/05/04 13:02:07;;;;;;;18.60;10.80;;;19.30;90.60;;;;;;4970144;28;20461;-56
2021/05/04 13:07:34;;;;;;;19.23;9.95;;;19.30;90.60;;;;;;4967123;28;20062;-56
2021/05/04 13:30:27;;;;;;;19.83;9.77;;;19.20;90.70;;;;;;4957245;28;20050;-57
2021/05/04 13:33:01;;;;;;;16.60;10.02;;;19.10;90.70;;;;;;4955725;28;20066;-50
2021/05/04 13:35:31;;;;;;;16.48;9.32;;;19.10;90.80;;;;;;4967219;28;20032;-53
2021/05/04 13:48:43;;;;;;;17.00;9.98;;;19.10;90.90;;;;;;4971160;28;20042;-52
2021/05/04 13:51:10;;;;;;;15.07;9.20;;;19.00;90.90;;;;;;4954925;28;20485;-53
2021/05/04 13:53:38;;;;;;;16.40;10.05;;;19.00;90.90;;;;;;4958537;28;20032;-53
2021/05/04 13:56:05;;;;;;;16.70;9.32;;;19.00;90.90;;;;;;4954903;28;20034;-50
2021/05/04 13:58:33;;;;;;;16.00;9.15;;;19.00;90.90;;;;;;4954788;28;20144;-52
2021/05/04 14:01:13;;;;;;;18.98;9.40;;;19.00;90.90;;;;;;4956378;28;20059;-50
2021/05/04 14:06:30;;;;;;;17.00;10.05;;;19.00;90.90;;;;;;4958677;28;20023;-51
2021/05/04 14:28:08;;;;;;;15.93;9.38;;;19.00;91.00;;;;;;4963141;28;20115;-51
2021/05/04 14:30:36;;;;;;;12.52;8.32;;;18.90;90.90;;;;;;4949445;28;20518;-55
2021/05/04 14:33:03;;;;;;;17.30;9.25;;;18.90;91.00;;;;;;4954909;28;20078;-58
2021/05/04 14:35:38;;;;;;;15.60;9.43;;;18.90;91.00;;;;;;4955665;28;20034;-53
2021/05/04 14:38:24;;;;;;;16.98;9.13;;;18.90;90.90;;;;;;4955677;28;20032;-51
2021/05/04 14:57:40;;;;;;;14.27;9.00;;;18.90;91.00;;;;;;4959293;28;20035;-53
2021/05/04 15:02:53;;;;;;;13.90;7.88;;;18.80;91.00;;;;;;4958592;28;20043;-51
2021/05/04 15:05:23;;;;;;;15.15;7.97;;;18.90;91.00;;;;;;4957420;28;20031;-55
2021/05/04 15:07:50;;;;;;;14.52;8.57;;;18.80;90.90;;;;;;4957281;28;20220;-54
2021/05/04 15:10:18;;;;;;;15.55;8.35;;;18.90;91.00;;;;;;4953032;28;20406;-57
2021/05/04 15:12:46;;;;;;;15.70;9.05;;;18.80;91.00;;;;;;4954030;28;20438;-53
2021/05/04 15:15:34;;;;;;;11.70;7.78;;;18.90;91.00;;;;;;4954556;28;20031;-56
2021/05/04 15:18:05;;;;;;;13.10;8.88;;;18.90;91.00;;;;;;4953173;28;20042;-57
2021/05/04 15:23:18;;;;;;;13.25;8.73;;;18.80;91.00;;;;;;4958083;28;20030;-58
2021/05/04 15:25:45;;;;;;;13.50;8.45;;;18.80;91.00;;;;;;4956842;28;20058;-51
2021/05/04 15:28:12;;;;;;;13.55;8.15;;;18.80;91.00;;;;;;4959210;28;20035;-54
2021/05/04 15:30:39;;;;;;;11.43;6.85;;;18.80;91.00;;;;;;4948290;28;20078;-53
2021/05/04 15:33:10;;;;;;;14.05;8.75;;;18.80;91.00;;;;;;4960380;28;20103;-52
2021/05/04 15:35:38;;;;;;;16.25;8.15;;;18.80;91.00;;;;;;4958579;28;20050;-56
2021/05/04 15:38:07;;;;;;;15.45;8.43;;;18.80;91.00;;;;;;4948757;28;20035;-49
2021/05/04 15:40:36;;;;;;;11.82;7.82;;;18.80;91.00;;;;;;4953936;28;20035;-48
2021/05/04 15:43:05;;;;;;;10.85;7.45;;;18.80;91.00;;;;;;4960969;28;20031;-53
2021/05/04 15:45:52;;;;;;;11.13;7.03;;;18.80;91.00;;;;;;4957252;28;20106;-53
2021/05/04 15:48:24;;;;;;;11.32;7.63;;;18.80;91.00;;;;;;4955984;28;20050;-46
2021/05/04 16:07:29;;;;;;;10.05;6.43;;;18.80;91.00;;;;;;4957818;28;20050;-45
2021/05/04 16:09:56;;;;;;;10.83;6.93;;;18.70;91.00;;;;;;4966087;28;20027;-45
2021/05/04 16:12:23;;;;;;;10.88;7.82;;;18.70;91.00;;;;;;4956141;28;20050;-46
2021/05/04 16:14:51;;;;;;;9.43;7.30;;;18.70;91.00;;;;;;4957239;28;20035;-51
2021/05/04 16:17:18;;;;;;;11.95;7.22;;;18.70;90.90;;;;;;4958112;28;20031;-52
2021/05/04 16:19:46;;;;;;;10.73;6.82;;;18.70;91.00;;;;;;4964075;28;20113;-45
2021/05/04 16:22:21;;;;;;;8.57;7.07;;;18.70;91.20;;;;;;4951893;28;20421;-51
2021/05/04 16:24:54;;;;;;;8.63;6.97;;;18.70;91.00;;;;;;4961032;28;20106;-50
2021/05/04 16:28:16;;;;;;;11.10;7.53;;;18.70;91.00;;;;;;4956937;28;20027;-45
2021/05/04 16:30:11;;;;;;;12.82;7.43;;;18.70;91.00;;;;;;4951322;28;20093;-49
2021/05/04 16:32:38;;;;;;;8.45;6.60;;;18.70;91.00;;;;;;4949727;28;20019;-49
2021/05/04 16:35:06;;;;;;;11.15;7.00;;;18.70;91.00;;;;;;4961250;28;20058;-45
2021/05/04 16:37:34;;;;;;;8.73;6.43;;;18.70;91.00;;;;;;4959854;28;20028;-51
2021/05/04 16:40:03;;;;;;;8.82;6.03;;;18.70;91.00;;;;;;4969053;28;20402;-48
2021/05/04 16:42:31;;;;;;;10.38;6.68;;;18.70;91.00;;;;;;4950536;28;20038;-54
2021/05/04 16:44:59;;;;;;;12.63;6.68;;;18.70;91.00;;;;;;4957985;28;20106;-51
2021/05/04 16:47:26;;;;;;;9.80;6.45;;;18.70;91.00;;;;;;4965193;28;20027;-51
2021/05/04 16:49:54;;;;;;;10.30;6.57;;;18.70;90.90;;;;;;4966158;28;20039;-53
2021/05/04 16:52:21;;;;;;;10.20;7.07;;;18.70;91.00;;;;;;4938913;28;20018;-53
2021/05/04 16:54:49;;;;;;;9.93;6.78;;;18.70;91.00;;;;;;4956462;28;20035;-53
2021/05/04 16:57:16;;;;;;;10.10;6.97;;;18.70;91.20;;;;;;4961452;28;20035;-54
2021/05/04 16:59:43;;;;;;;11.35;7.22;;;18.70;91.00;;;;;;4959867;28;20031;-50
2021/05/04 17:02:13;;;;;;;8.73;6.28;;;18.60;90.90;;;;;;4951501;28;20043;-51
2021/05/04 17:04:41;;;;;;;8.18;5.70;;;18.70;91.00;;;;;;4957465;28;20035;-53
2021/05/04 17:07:26;;;;;;;10.77;7.03;;;18.60;90.90;;;;;;4961913;28;20023;-50
2021/05/04 17:12:21;;;;;;;9.43;6.35;;;18.70;91.00;;;;;;4943619;28;20485;-52
2021/05/04 17:14:48;;;;;;;11.27;6.18;;;18.70;90.90;;;;;;4958316;28;20054;-51
2021/05/04 17:17:15;;;;;;;10.20;6.50;;;18.60;91.00;;;;;;4966889;28;20167;-53
2021/05/04 17:19:42;;;;;;;7.40;5.93;;;18.60;90.90;;;;;;4960609;28;20030;-50
2021/05/04 17:22:10;;;;;;;9.35;5.72;;;18.60;90.90;;;;;;4945333;28;20666;-54
2021/05/04 17:24:37;;;;;;;8.30;5.93;;;18.60;90.90;;;;;;4957184;28;20035;-53
2021/05/04 17:27:05;;;;;;;10.18;6.13;;;18.70;91.00;;;;;;4955101;28;20405;-45
2021/05/04 17:29:32;;;;;;;8.30;5.65;;;18.60;91.00;;;;;;4958657;28;20024;-51
2021/05/04 17:32:00;;;;;;;10.85;6.68;;;18.60;91.00;;;;;;4949041;28;20039;-52
2021/05/04 17:34:27;;;;;;;8.55;5.75;;;18.60;91.00;;;;;;4956226;28;20025;-49
2021/05/04 17:36:54;;;;;;;8.65;5.95;;;18.60;91.00;;;;;;4959528;28;20035;-49
2021/05/04 17:39:22;;;;;;;7.32;5.40;;;18.60;90.90;;;;;;4958582;28;20027;-47
2021/05/04 17:41:49;;;;;;;7.20;5.43;;;18.60;91.00;;;;;;4949287;28;21724;-50
2021/05/04 17:44:17;;;;;;;10.02;6.57;;;18.60;91.00;;;;;;4960280;28;20105;-49
2021/05/04 17:46:44;;;;;;;8.18;5.75;;;18.60;91.00;;;;;;4964998;28;20385;-51
2021/05/04 17:49:11;;;;;;;9.52;5.63;;;18.60;91.00;;;;;;4956574;28;20031;-47
2021/05/04 17:51:39;;;;;;;7.07;5.32;;;18.60;91.00;;;;;;4957765;28;20049;-49
2021/05/04 17:54:09;;;;;;;8.20;5.47;;;18.60;91.00;;;;;;4956826;28;20027;-56
2021/05/04 17:56:38;;;;;;;10.80;6.28;;;18.60;91.00;;;;;;4972362;28;20035;-54
2021/05/04 17:59:06;;;;;;;7.43;6.07;;;18.60;91.00;;;;;;4970285;28;20033;-50
2021/05/04 18:01:33;;;;;;;8.75;5.90;;;18.60;91.00;;;;;;4965741;28;20039;-52
2021/05/04 18:04:01;;;;;;;7.20;6.03;;;18.60;91.00;;;;;;4962298;28;20388;-52
2021/05/04 18:06:31;;;;;;;9.88;5.97;;;18.60;91.00;;;;;;4973455;28;20810;-51
2021/05/04 18:09:00;;;;;;;8.13;5.88;;;18.60;91.00;;;;;;4964127;28;20031;-50
2021/05/04 18:11:30;;;;;;;9.77;5.97;;;18.60;91.00;;;;;;4955910;28;20062;-50
2021/05/04 18:19:46;;;;;;;9.15;5.53;;;18.50;91.00;;;;;;4972385;28;20481;-50
2021/05/04 18:22:17;;;;;;;8.65;5.32;;;18.60;91.00;;;;;;4961482;28;20038;-57
2021/05/04 18:24:44;;;;;;;8.23;6.03;;;18.60;91.00;;;;;;4971899;28;20078;-54
2021/05/04 18:27:12;;;;;;;9.07;5.45;;;18.50;91.00;;;;;;4962509;28;20031;-52
2021/05/04 18:29:47;;;;;;;8.43;5.00;;;18.50;91.00;;;;;;4966780;28;20113;-54
2021/05/04 18:32:18;;;;;;;8.60;5.60;;;18.60;91.00;;;;;;4955614;28;20042;-58
2021/05/04 18:34:54;;;;;;;7.53;5.45;;;18.60;91.00;;;;;;4965365;28;20042;-53
2021/05/04 18:42:49;;;;;;;7.72;5.63;;;18.50;91.00;;;;;;4956678;28;20019;-48
2021/05/04 19:09:49;;;;;;;6.20;5.20;;;18.50;91.30;;;;;;4972489;28;20023;-54
2021/05/04 19:12:43;;;;;;;8.13;5.57;;;18.50;91.00;;;;;;4949748;28;20405;-55
2021/05/04 19:29:05;;;;;;;6.68;5.22;;;18.50;91.00;;;;;;4960930;28;20030;-54
2021/05/04 19:32:01;;;;;;;6.28;5.03;;;18.50;91.00;;;;;;4958046;28;20042;-57
2021/05/04 20:12:41;;;;;;;5.65;4.22;;;18.50;91.00;;;;;;4971641;28;20524;-58
2021/05/04 20:15:08;;;;;;;6.90;4.50;;;18.50;91.00;;;;;;4957847;28;20042;-58
2021/05/04 20:17:39;;;;;;;7.80;4.97;;;18.50;91.00;;;;;;4964359;28;20376;-56
2021/05/04 20:20:30;;;;;;;8.32;4.63;;;18.50;91.00;;;;;;4962669;28;20027;-59
2021/05/04 20:22:56;;;;;;;6.07;4.70;;;18.50;91.00;;;;;;4967486;28;20400;-54
2021/05/04 20:25:24;;;;;;;5.78;4.28;;;18.50;90.90;;;;;;4966733;28;20089;-58
2021/05/04 20:27:52;;;;;;;4.20;3.65;;;18.50;90.90;;;;;;4958192;28;20435;-58
2021/05/04 20:30:23;;;;;;;6.38;4.22;;;18.50;90.90;;;;;;4967320;28;20034;-60
2021/05/04 20:32:51;;;;;;;7.40;4.82;;;18.50;90.90;;;;;;4954538;28;20432;-58
2021/05/04 20:35:18;;;;;;;7.28;4.53;;;18.50;90.90;;;;;;4974886;28;20102;-58
2021/05/04 20:37:46;;;;;;;7.07;4.13;;;18.50;90.90;;;;;;4972774;28;20035;-58
2021/05/04 20:40:14;;;;;;;5.43;3.80;;;18.60;90.90;;;;;;4957836;28;20027;-57
2021/05/04 20:42:41;;;;;;;5.82;4.30;;;18.50;90.90;;;;;;4942158;28;20390;-54
2021/05/04 20:45:11;;;;;;;5.97;4.20;;;18.50;90.90;;;;;;4963247;28;20098;-50
2021/05/04 20:47:39;;;;;;;4.50;3.78;;;18.60;90.90;;;;;;4971281;28;20038;-57
2021/05/04 20:50:08;;;;;;;6.20;4.43;;;18.50;90.90;;;;;;4964124;28;20072;-58
2021/05/04 20:52:36;;;;;;;6.93;4.20;;;18.50;90.90;;;;;;4941024;28;20042;-52
2021/05/04 20:55:07;;;;;;;5.68;3.85;;;18.60;90.90;;;;;;4959608;28;20033;-60
2021/05/04 20:57:39;;;;;;;5.40;4.00;;;18.50;90.90;;;;;;4958755;28;20248;-51
2021/05/04 21:00:11;;;;;;;6.30;4.20;;;18.60;90.80;;;;;;4966319;28;20038;-54
2021/05/04 21:02:38;;;;;;;4.65;3.70;;;18.50;90.80;;;;;;4971953;28;20070;-52
2021/05/04 21:05:06;;;;;;;5.32;4.05;;;18.60;90.90;;;;;;4972784;28;20058;-54
2021/05/04 21:07:34;;;;;;;5.15;4.13;;;18.50;90.80;;;;;;4966126;28;20056;-52
2021/05/04 21:10:12;;;;;;;5.78;4.25;;;18.50;90.90;;;;;;4972240;28;20027;-50
2021/05/04 21:12:39;;;;;;;5.30;4.15;;;18.50;90.90;;;;;;4961920;28;20043;-52
2021/05/04 21:15:11;;;;;;;6.25;3.80;;;18.50;90.90;;;;;;4975014;28;20485;-53
2021/05/04 21:17:42;;;;;;;8.32;3.80;;;18.50;90.90;;;;;;4966558;28;20038;-53
2021/05/04 21:20:17;;;;;;;5.85;4.43;;;18.50;90.90;;;;;;4969902;28;20482;-56
2021/05/04 21:23:09;;;;;;;7.28;4.47;;;18.50;90.80;;;;;;4962964;28;20031;-58
2021/05/04 21:25:42;;;;;;;5.43;3.95;;;18.50;90.80;;;;;;4958203;28;20105;-51
2021/05/04 21:28:09;;;;;;;4.82;3.47;;;18.50;90.90;;;;;;4944243;28;20059;-57
2021/05/04 21:30:36;;;;;;;6.85;4.53;;;18.50;90.90;;;;;;4955212;28;20035;-55
2021/05/04 21:33:06;;;;;;;5.15;3.55;;;18.50;90.90;;;;;;4955313;28;20117;-48
2021/05/04 21:35:34;;;;;;;3.70;3.30;;;18.50;90.80;;;;;;4966337;28;20059;-52
2021/05/04 21:38:02;;;;;;;7.03;4.10;;;18.50;90.90;;;;;;4957907;28;20182;-58
2021/05/04 21:40:30;;;;;;;4.95;3.90;;;18.50;90.90;;;;;;4973225;28;20027;-57
2021/05/04 21:42:58;;;;;;;4.55;3.67;;;18.50;90.90;;;;;;4958220;28;20444;-59
2021/05/04 21:45:25;;;;;;;5.40;3.70;;;18.50;90.90;;;;;;4956729;28;20110;-58
2021/05/04 21:47:54;;;;;;;6.20;4.30;;;18.50;90.90;;;;;;4964558;28;20031;-57
2021/05/04 21:50:23;;;;;;;4.40;3.70;;;18.50;90.90;;;;;;4968842;28;20081;-54
2021/05/04 21:52:50;;;;;;;5.90;3.75;;;18.50;90.90;;;;;;4971398;28;20023;-54
2021/05/04 21:55:23;;;;;;;3.42;3.10;;;18.50;90.90;;;;;;4973387;28;20079;-53
2021/05/04 21:57:51;;;;;;;6.72;4.30;;;18.50;90.90;;;;;;4965637;28;20042;-54
2021/05/04 22:00:29;;;;;;;4.97;3.92;;;18.50;90.90;;;;;;4955837;28;20097;-56
2021/05/04 22:02:56;;;;;;;5.90;3.85;;;18.50;90.90;;;;;;4953226;28;20065;-58
2021/05/04 22:05:24;;;;;;;8.30;4.30;;;18.50;90.90;;;;;;4957989;28;20023;-56
2021/05/04 22:07:51;;;;;;;4.60;3.30;;;18.60;90.90;;;;;;4957413;28;20496;-57
2021/05/04 22:10:30;;;;;;;5.22;3.67;;;18.50;90.90;;;;;;4934772;29;20086;-58
2021/05/04 22:13:10;;;;;;;5.63;3.30;;;18.50;90.90;;;;;;4959525;28;20086;-58
2021/05/04 22:21:18;;;;;;;4.95;3.70;;;18.60;90.80;;;;;;4948539;29;20023;-53
2021/05/04 22:37:46;;;;;;;5.30;3.85;;;18.60;90.80;;;;;;4942465;28;20050;-54
2021/05/04 22:40:17;;;;;;;5.18;3.53;;;18.60;90.80;;;;;;4942996;28;20049;-50
2021/05/04 22:42:56;;;;;;;5.18;3.63;;;18.60;90.80;;;;;;4957680;28;20023;-51
2021/05/04 23:15:59;;;;;;;6.90;3.50;;;18.80;90.70;;;;;;4948930;28;20528;-56
2021/05/04 23:18:28;;;;;;;5.85;3.20;;;18.80;90.70;;;;;;4960082;28;20043;-53
2021/05/04 23:20:55;;;;;;;5.43;3.47;;;18.90;90.70;;;;;;4955904;28;20056;-52
2021/05/04 23:23:22;;;;;;;4.15;3.25;;;18.90;90.70;;;;;;4955691;28;20024;-50
2021/05/04 23:25:50;;;;;;;4.22;3.20;;;18.90;90.60;;;;;;4952109;28;20069;-54
2021/05/04 23:28:17;;;;;;;5.80;3.25;;;19.00;90.70;;;;;;4957574;28;20355;-53
2021/05/04 23:30:45;;;;;;;3.65;2.88;;;19.00;90.70;;;;;;4954879;28;20051;-51
2021/05/04 23:33:12;;;;;;;5.80;3.30;;;19.00;90.70;;;;;;4955001;28;20442;-50
2021/05/04 23:35:41;;;;;;;3.55;2.83;;;19.00;90.60;;;;;;4955943;28;20073;-60
2021/05/04 23:38:08;;;;;;;14.63;4.82;;;19.00;90.60;;;;;;4936264;28;20030;-55
2021/05/04 23:40:36;;;;;;;10.90;3.20;;;18.90;92.70;;;;;;4936131;29;20023;-57
2021/05/04 23:43:04;;;;;;;13.75;3.85;;;18.70;93.80;;;;;;4954711;28;20406;-58
2021/05/04 23:45:31;;;;;;;8.43;3.47;;;18.40;94.70;;;;;;4954622;28;20482;-55
2021/05/04 23:47:59;;;;;;;10.00;4.03;;;18.30;94.30;;;;;;4963688;28;20458;-59
2021/05/04 23:50:26;;;;;;;6.45;3.38;;;18.30;95.40;;;;;;4960296;28;20058;-59
2021/05/04 23:52:53;;;;;;;9.50;3.80;;;18.30;94.90;;;;;;4959502;28;20090;-55
2021/05/04 23:55:21;;;;;;;11.90;3.65;;;18.30;95.00;;;;;;4943916;28;20062;-57
2021/05/04 23:57:48;;;;;;;11.52;8.40;;;18.40;95.20;;;;;;4966933;28;20126;-53
